sensor_id;sensor_type;location;lat;lon;timestamp;temperature;humidity
57088;DHT22;42965;52.846;6.614;2023-07-16T00:00:23;16.40;99.90
57088;DHT22;42965;52.846;6.614;2023-07-16T00:02:53;16.40;99.90
57088;DHT22;42965;52.846;6.614;2023-07-16T00:05:19;16.30;99.90
57088;DHT22;42965;52.846;6.614;2023-07-16T00:07:45;16.30;99.90
57088;DHT22;42965;52.846;6.614;2023-07-16T00:10:12;16.30;99.90
57088;DHT22;42965;52.846;6.614;2023-07-16T00:12:38;16.20;99.90
57088;DHT22;42965;52.846;6.614;2023-07-16T00:15:05;16.20;99.90
57088;DHT22;42965;52.846;6.614;2023-07-16T00:17:33;16.20;99.90
57088;DHT22;42965;52.846;6.614;2023-07-16T00:20:00;16.20;99.90
57088;DHT22;42965;52.846;6.614;2023-07-16T00:22:26;16.10;99.90
57088;DHT22;42965;52.846;6.614;2023-07-16T00:24:52;16.20;99.90
57088;DHT22;42965;52.846;6.614;2023-07-16T00:27:18;16.20;99.90
57088;DHT22;42965;52.846;6.614;2023-07-16T00:29:46;16.20;99.90
57088;DHT22;42965;52.846;6.614;2023-07-16T00:32:12;16.40;99.90
57088;DHT22;42965;52.846;6.614;2023-07-16T00:34:39;16.40;99.90
57088;DHT22;42965;52.846;6.614;2023-07-16T00:37:08;16.40;99.90
57088;DHT22;42965;52.846;6.614;2023-07-16T00:39:34;16.40;99.90
57088;DHT22;42965;52.846;6.614;2023-07-16T00:42:02;16.40;99.90
57088;DHT22;42965;52.846;6.614;2023-07-16T00:44:29;16.30;99.90
57088;DHT22;42965;52.846;6.614;2023-07-16T00:46:56;16.30;99.90
57088;DHT22;42965;52.846;6.614;2023-07-16T00:49:23;16.20;99.90
57088;DHT22;42965;52.846;6.614;2023-07-16T00:51:55;16.20;99.90
57088;DHT22;42965;52.846;6.614;2023-07-16T00:54:22;16.10;99.90
57088;DHT22;42965;52.846;6.614;2023-07-16T00:56:48;16.10;99.90
57088;DHT22;42965;52.846;6.614;2023-07-16T00:59:15;16.00;99.90
57088;DHT22;42965;52.846;6.614;2023-07-16T01:01:42;16.00;99.90
57088;DHT22;42965;52.846;6.614;2023-07-16T01:04:08;15.90;99.90
57088;DHT22;42965;52.846;6.614;2023-07-16T01:06:43;15.80;99.90
57088;DHT22;42965;52.846;6.614;2023-07-16T01:09:15;15.80;99.90
57088;DHT22;42965;52.846;6.614;2023-07-16T01:11:45;15.70;99.90
57088;DHT22;42965;52.846;6.614;2023-07-16T01:14:17;15.70;99.90
57088;DHT22;42965;52.846;6.614;2023-07-16T01:16:44;15.60;99.90
57088;DHT22;42965;52.846;6.614;2023-07-16T01:19:11;15.70;99.90
57088;DHT22;42965;52.846;6.614;2023-07-16T01:27:42;15.60;99.90
57088;DHT22;42965;52.846;6.614;2023-07-16T01:30:15;15.50;99.90
57088;DHT22;42965;52.846;6.614;2023-07-16T01:32:42;15.60;99.90
57088;DHT22;42965;52.846;6.614;2023-07-16T01:35:10;15.60;99.90
57088;DHT22;42965;52.846;6.614;2023-07-16T01:37:38;15.60;99.90
57088;DHT22;42965;52.846;6.614;2023-07-16T01:40:06;15.70;99.90
57088;DHT22;42965;52.846;6.614;2023-07-16T01:42:35;15.70;99.90
57088;DHT22;42965;52.846;6.614;2023-07-16T01:45:02;15.90;99.90
57088;DHT22;42965;52.846;6.614;2023-07-16T01:47:35;16.00;99.90
57088;DHT22;42965;52.846;6.614;2023-07-16T01:50:04;16.00;99.90
57088;DHT22;42965;52.846;6.614;2023-07-16T01:52:31;16.10;99.90
57088;DHT22;42965;52.846;6.614;2023-07-16T01:54:57;16.10;99.90
57088;DHT22;42965;52.846;6.614;2023-07-16T01:57:23;16.30;99.90
57088;DHT22;42965;52.846;6.614;2023-07-16T01:59:50;16.30;99.90
57088;DHT22;42965;52.846;6.614;2023-07-16T02:02:16;16.40;99.90
57088;DHT22;42965;52.846;6.614;2023-07-16T02:04:42;16.40;99.90
57088;DHT22;42965;52.846;6.614;2023-07-16T02:07:08;16.40;99.90
57088;DHT22;42965;52.846;6.614;2023-07-16T02:09:34;16.50;99.90
57088;DHT22;42965;52.846;6.614;2023-07-16T02:12:04;16.50;99.90
57088;DHT22;42965;52.846;6.614;2023-07-16T02:14:30;16.40;99.90
57088;DHT22;42965;52.846;6.614;2023-07-16T02:16:57;16.50;99.90
57088;DHT22;42965;52.846;6.614;2023-07-16T02:19:25;16.50;99.90
57088;DHT22;42965;52.846;6.614;2023-07-16T02:21:52;16.50;99.90
57088;DHT22;42965;52.846;6.614;2023-07-16T02:24:20;16.50;99.90
57088;DHT22;42965;52.846;6.614;2023-07-16T02:26:46;16.40;99.90
57088;DHT22;42965;52.846;6.614;2023-07-16T02:29:12;16.40;99.90
57088;DHT22;42965;52.846;6.614;2023-07-16T02:31:39;16.40;99.90
57088;DHT22;42965;52.846;6.614;2023-07-16T02:34:05;16.30;99.90
57088;DHT22;42965;52.846;6.614;2023-07-16T02:36:32;16.40;99.90
57088;DHT22;42965;52.846;6.614;2023-07-16T02:39:00;16.30;99.90
57088;DHT22;42965;52.846;6.614;2023-07-16T02:41:26;16.20;99.90
57088;DHT22;42965;52.846;6.614;2023-07-16T02:44:00;16.20;99.90
57088;DHT22;42965;52.846;6.614;2023-07-16T02:46:27;16.00;99.90
57088;DHT22;42965;52.846;6.614;2023-07-16T02:48:55;16.00;99.90
57088;DHT22;42965;52.846;6.614;2023-07-16T02:51:22;16.00;99.90
57088;DHT22;42965;52.846;6.614;2023-07-16T02:53:48;15.90;99.90
57088;DHT22;42965;52.846;6.614;2023-07-16T02:56:17;15.80;99.90
57088;DHT22;42965;52.846;6.614;2023-07-16T02:58:43;15.90;99.90
57088;DHT22;42965;52.846;6.614;2023-07-16T03:01:10;15.80;99.90
57088;DHT22;42965;52.846;6.614;2023-07-16T03:03:36;15.80;99.90
57088;DHT22;42965;52.846;6.614;2023-07-16T03:06:02;15.80;99.90
57088;DHT22;42965;52.846;6.614;2023-07-16T03:08:29;15.70;99.90
57088;DHT22;42965;52.846;6.614;2023-07-16T03:10:58;15.70;99.90
57088;DHT22;42965;52.846;6.614;2023-07-16T03:13:24;15.80;99.90
57088;DHT22;42965;52.846;6.614;2023-07-16T03:15:50;15.80;99.90
57088;DHT22;42965;52.846;6.614;2023-07-16T03:18:20;15.90;99.90
57088;DHT22;42965;52.846;6.614;2023-07-16T03:20:46;15.90;99.90
57088;DHT22;42965;52.846;6.614;2023-07-16T03:23:13;15.90;99.90
57088;DHT22;42965;52.846;6.614;2023-07-16T03:25:39;15.90;99.90
57088;DHT22;42965;52.846;6.614;2023-07-16T03:28:06;15.80;99.90
57088;DHT22;42965;52.846;6.614;2023-07-16T03:30:32;15.90;99.90
57088;DHT22;42965;52.846;6.614;2023-07-16T03:33:01;15.90;99.90
57088;DHT22;42965;52.846;6.614;2023-07-16T03:35:28;15.90;99.90
57088;DHT22;42965;52.846;6.614;2023-07-16T03:37:54;15.80;99.90
57088;DHT22;42965;52.846;6.614;2023-07-16T03:40:27;15.80;99.90
57088;DHT22;42965;52.846;6.614;2023-07-16T03:42:53;15.80;99.90
57088;DHT22;42965;52.846;6.614;2023-07-16T03:45:20;15.70;99.90
57088;DHT22;42965;52.846;6.614;2023-07-16T03:47:46;15.70;99.90
57088;DHT22;42965;52.846;6.614;2023-07-16T03:50:13;15.70;99.90
57088;DHT22;42965;52.846;6.614;2023-07-16T03:52:39;15.70;99.90
57088;DHT22;42965;52.846;6.614;2023-07-16T03:55:06;15.70;99.90
57088;DHT22;42965;52.846;6.614;2023-07-16T03:57:32;15.70;99.90
57088;DHT22;42965;52.846;6.614;2023-07-16T03:59:59;15.70;99.90
57088;DHT22;42965;52.846;6.614;2023-07-16T04:02:26;15.60;99.90
57088;DHT22;42965;52.846;6.614;2023-07-16T04:04:52;15.60;99.90
57088;DHT22;42965;52.846;6.614;2023-07-16T04:07:18;15.60;99.90
57088;DHT22;42965;52.846;6.614;2023-07-16T04:09:44;15.60;99.90
57088;DHT22;42965;52.846;6.614;2023-07-16T04:12:11;15.60;99.90
57088;DHT22;42965;52.846;6.614;2023-07-16T04:14:37;15.60;99.90
57088;DHT22;42965;52.846;6.614;2023-07-16T04:17:03;15.60;99.90
57088;DHT22;42965;52.846;6.614;2023-07-16T04:19:30;15.60;99.90
57088;DHT22;42965;52.846;6.614;2023-07-16T04:21:56;15.60;99.90
57088;DHT22;42965;52.846;6.614;2023-07-16T04:24:22;15.60;99.90
57088;DHT22;42965;52.846;6.614;2023-07-16T04:26:49;15.60;99.90
57088;DHT22;42965;52.846;6.614;2023-07-16T04:29:15;15.60;99.90
57088;DHT22;42965;52.846;6.614;2023-07-16T04:31:42;15.60;99.90
57088;DHT22;42965;52.846;6.614;2023-07-16T04:34:08;15.70;99.90
57088;DHT22;42965;52.846;6.614;2023-07-16T04:36:34;15.70;99.90
57088;DHT22;42965;52.846;6.614;2023-07-16T04:39:01;15.70;99.90
57088;DHT22;42965;52.846;6.614;2023-07-16T04:41:28;15.80;99.90
57088;DHT22;42965;52.846;6.614;2023-07-16T04:43:55;15.80;99.90
57088;DHT22;42965;52.846;6.614;2023-07-16T04:46:21;15.90;99.90
57088;DHT22;42965;52.846;6.614;2023-07-16T04:48:48;15.90;99.90
57088;DHT22;42965;52.846;6.614;2023-07-16T04:51:14;16.00;99.90
57088;DHT22;42965;52.846;6.614;2023-07-16T04:53:40;16.10;99.90
57088;DHT22;42965;52.846;6.614;2023-07-16T04:56:14;16.10;99.90
57088;DHT22;42965;52.846;6.614;2023-07-16T04:58:41;16.20;99.90
57088;DHT22;42965;52.846;6.614;2023-07-16T05:01:08;16.30;99.90
57088;DHT22;42965;52.846;6.614;2023-07-16T05:03:35;16.30;99.90
57088;DHT22;42965;52.846;6.614;2023-07-16T05:06:02;16.40;99.90
57088;DHT22;42965;52.846;6.614;2023-07-16T05:08:31;16.50;99.90
57088;DHT22;42965;52.846;6.614;2023-07-16T05:10:58;16.50;99.90
57088;DHT22;42965;52.846;6.614;2023-07-16T05:13:25;16.60;99.90
57088;DHT22;42965;52.846;6.614;2023-07-16T05:15:52;16.80;99.90
57088;DHT22;42965;52.846;6.614;2023-07-16T05:18:18;17.00;99.90
57088;DHT22;42965;52.846;6.614;2023-07-16T05:20:47;17.30;99.90
57088;DHT22;42965;52.846;6.614;2023-07-16T05:23:14;17.40;99.90
57088;DHT22;42965;52.846;6.614;2023-07-16T05:25:49;17.70;99.90
57088;DHT22;42965;52.846;6.614;2023-07-16T05:28:17;17.80;99.90
57088;DHT22;42965;52.846;6.614;2023-07-16T05:30:43;18.00;99.90
57088;DHT22;42965;52.846;6.614;2023-07-16T05:33:12;18.10;99.90
57088;DHT22;42965;52.846;6.614;2023-07-16T05:35:39;18.10;99.90
57088;DHT22;42965;52.846;6.614;2023-07-16T05:38:05;18.30;99.90
57088;DHT22;42965;52.846;6.614;2023-07-16T05:40:32;18.30;99.90
57088;DHT22;42965;52.846;6.614;2023-07-16T05:42:59;18.40;99.90
57088;DHT22;42965;52.846;6.614;2023-07-16T05:45:36;18.50;99.90
57088;DHT22;42965;52.846;6.614;2023-07-16T05:48:35;18.60;99.90
57088;DHT22;42965;52.846;6.614;2023-07-16T05:51:02;18.70;99.90
57088;DHT22;42965;52.846;6.614;2023-07-16T05:53:29;18.70;99.90
57088;DHT22;42965;52.846;6.614;2023-07-16T05:55:56;18.80;99.90
57088;DHT22;42965;52.846;6.614;2023-07-16T05:58:22;18.90;99.90
57088;DHT22;42965;52.846;6.614;2023-07-16T06:00:48;19.00;99.90
57088;DHT22;42965;52.846;6.614;2023-07-16T06:03:14;19.00;99.90
57088;DHT22;42965;52.846;6.614;2023-07-16T06:05:42;19.00;99.90
57088;DHT22;42965;52.846;6.614;2023-07-16T06:08:09;18.90;99.90
57088;DHT22;42965;52.846;6.614;2023-07-16T06:10:35;19.10;99.90
57088;DHT22;42965;52.846;6.614;2023-07-16T06:13:01;19.10;99.90
57088;DHT22;42965;52.846;6.614;2023-07-16T06:15:28;19.20;99.90
57088;DHT22;42965;52.846;6.614;2023-07-16T06:17:54;19.40;99.90
57088;DHT22;42965;52.846;6.614;2023-07-16T06:20:20;19.50;99.90
57088;DHT22;42965;52.846;6.614;2023-07-16T06:22:47;19.40;99.90
57088;DHT22;42965;52.846;6.614;2023-07-16T06:25:13;19.50;99.90
57088;DHT22;42965;52.846;6.614;2023-07-16T06:27:39;19.50;99.90
57088;DHT22;42965;52.846;6.614;2023-07-16T06:30:06;19.50;99.90
57088;DHT22;42965;52.846;6.614;2023-07-16T06:32:33;19.80;99.90
57088;DHT22;42965;52.846;6.614;2023-07-16T06:35:02;20.00;99.90
57088;DHT22;42965;52.846;6.614;2023-07-16T06:37:29;20.10;99.90
57088;DHT22;42965;52.846;6.614;2023-07-16T06:39:55;19.80;99.90
57088;DHT22;42965;52.846;6.614;2023-07-16T06:42:22;19.80;99.90
57088;DHT22;42965;52.846;6.614;2023-07-16T06:44:50;19.80;99.90
57088;DHT22;42965;52.846;6.614;2023-07-16T06:47:16;19.90;99.90
57088;DHT22;42965;52.846;6.614;2023-07-16T06:49:42;19.80;99.90
57088;DHT22;42965;52.846;6.614;2023-07-16T06:52:19;20.00;99.90
57088;DHT22;42965;52.846;6.614;2023-07-16T06:54:45;19.90;99.90
57088;DHT22;42965;52.846;6.614;2023-07-16T06:57:11;20.00;99.90
57088;DHT22;42965;52.846;6.614;2023-07-16T06:59:38;20.20;99.90
57088;DHT22;42965;52.846;6.614;2023-07-16T07:02:06;20.40;99.90
57088;DHT22;42965;52.846;6.614;2023-07-16T07:04:32;20.40;99.90
57088;DHT22;42965;52.846;6.614;2023-07-16T07:06:58;20.40;99.90
57088;DHT22;42965;52.846;6.614;2023-07-16T07:09:25;20.30;99.90
57088;DHT22;42965;52.846;6.614;2023-07-16T07:11:51;20.60;99.90
57088;DHT22;42965;52.846;6.614;2023-07-16T07:14:18;20.60;99.90
57088;DHT22;42965;52.846;6.614;2023-07-16T07:16:44;20.60;99.90
57088;DHT22;42965;52.846;6.614;2023-07-16T07:19:10;20.90;99.90
57088;DHT22;42965;52.846;6.614;2023-07-16T07:21:37;20.80;99.90
57088;DHT22;42965;52.846;6.614;2023-07-16T07:24:03;21.00;99.90
57088;DHT22;42965;52.846;6.614;2023-07-16T07:26:30;21.00;99.90
57088;DHT22;42965;52.846;6.614;2023-07-16T07:28:56;21.40;99.90
57088;DHT22;42965;52.846;6.614;2023-07-16T07:31:22;21.40;99.90
57088;DHT22;42965;52.846;6.614;2023-07-16T07:33:49;21.20;99.90
57088;DHT22;42965;52.846;6.614;2023-07-16T07:36:15;21.60;99.90
57088;DHT22;42965;52.846;6.614;2023-07-16T07:38:41;21.90;99.90
57088;DHT22;42965;52.846;6.614;2023-07-16T07:41:07;21.90;99.90
57088;DHT22;42965;52.846;6.614;2023-07-16T07:43:34;21.70;99.90
57088;DHT22;42965;52.846;6.614;2023-07-16T07:46:01;21.70;99.90
57088;DHT22;42965;52.846;6.614;2023-07-16T07:48:27;21.80;99.90
57088;DHT22;42965;52.846;6.614;2023-07-16T07:50:53;21.50;99.90
57088;DHT22;42965;52.846;6.614;2023-07-16T07:53:20;21.80;99.90
57088;DHT22;42965;52.846;6.614;2023-07-16T07:55:46;22.00;99.90
57088;DHT22;42965;52.846;6.614;2023-07-16T07:58:12;21.60;99.90
57088;DHT22;42965;52.846;6.614;2023-07-16T08:00:39;21.50;99.90
57088;DHT22;42965;52.846;6.614;2023-07-16T08:03:05;21.50;99.90
57088;DHT22;42965;52.846;6.614;2023-07-16T08:05:31;21.70;99.90
57088;DHT22;42965;52.846;6.614;2023-07-16T08:08:02;21.70;99.90
57088;DHT22;42965;52.846;6.614;2023-07-16T08:10:29;21.40;99.90
57088;DHT22;42965;52.846;6.614;2023-07-16T08:12:58;21.20;99.90
57088;DHT22;42965;52.846;6.614;2023-07-16T08:15:24;21.20;99.90
57088;DHT22;42965;52.846;6.614;2023-07-16T08:17:50;21.20;99.90
57088;DHT22;42965;52.846;6.614;2023-07-16T08:20:16;21.30;99.90
57088;DHT22;42965;52.846;6.614;2023-07-16T08:22:43;21.20;99.90
57088;DHT22;42965;52.846;6.614;2023-07-16T08:25:09;21.20;99.90
57088;DHT22;42965;52.846;6.614;2023-07-16T08:27:35;20.90;99.90
57088;DHT22;42965;52.846;6.614;2023-07-16T08:30:02;20.90;99.90
57088;DHT22;42965;52.846;6.614;2023-07-16T08:32:30;20.80;99.90
57088;DHT22;42965;52.846;6.614;2023-07-16T08:34:56;20.90;99.90
57088;DHT22;42965;52.846;6.614;2023-07-16T08:37:22;20.90;99.90
57088;DHT22;42965;52.846;6.614;2023-07-16T08:39:52;21.00;99.90
57088;DHT22;42965;52.846;6.614;2023-07-16T08:42:19;20.90;99.90
57088;DHT22;42965;52.846;6.614;2023-07-16T08:44:48;21.00;99.90
57088;DHT22;42965;52.846;6.614;2023-07-16T08:47:16;21.00;99.90
57088;DHT22;42965;52.846;6.614;2023-07-16T08:49:53;21.20;99.90
57088;DHT22;42965;52.846;6.614;2023-07-16T08:52:21;21.60;99.90
57088;DHT22;42965;52.846;6.614;2023-07-16T08:54:47;21.40;99.90
57088;DHT22;42965;52.846;6.614;2023-07-16T08:57:14;21.50;99.90
57088;DHT22;42965;52.846;6.614;2023-07-16T08:59:41;21.70;99.90
57088;DHT22;42965;52.846;6.614;2023-07-16T09:02:30;22.00;99.90
57088;DHT22;42965;52.846;6.614;2023-07-16T09:04:57;22.00;99.90
57088;DHT22;42965;52.846;6.614;2023-07-16T09:07:25;22.60;99.90
57088;DHT22;42965;52.846;6.614;2023-07-16T09:09:55;22.40;99.90
57088;DHT22;42965;52.846;6.614;2023-07-16T09:12:24;22.10;99.90
57088;DHT22;42965;52.846;6.614;2023-07-16T09:14:51;21.90;99.90
57088;DHT22;42965;52.846;6.614;2023-07-16T09:17:24;21.60;99.90
57088;DHT22;42965;52.846;6.614;2023-07-16T09:19:51;21.50;99.90
57088;DHT22;42965;52.846;6.614;2023-07-16T09:22:19;21.60;99.90
57088;DHT22;42965;52.846;6.614;2023-07-16T09:24:46;21.70;99.90
57088;DHT22;42965;52.846;6.614;2023-07-16T09:27:13;21.50;99.90
57088;DHT22;42965;52.846;6.614;2023-07-16T09:29:40;21.40;99.90
57088;DHT22;42965;52.846;6.614;2023-07-16T09:32:06;21.40;99.90
57088;DHT22;42965;52.846;6.614;2023-07-16T09:34:33;21.60;99.90
57088;DHT22;42965;52.846;6.614;2023-07-16T09:37:00;21.40;99.90
57088;DHT22;42965;52.846;6.614;2023-07-16T09:39:27;21.10;99.90
57088;DHT22;42965;52.846;6.614;2023-07-16T09:41:54;20.80;99.90
57088;DHT22;42965;52.846;6.614;2023-07-16T09:44:23;20.60;99.90
57088;DHT22;42965;52.846;6.614;2023-07-16T09:46:49;20.50;99.90
57088;DHT22;42965;52.846;6.614;2023-07-16T09:49:18;20.60;99.90
57088;DHT22;42965;52.846;6.614;2023-07-16T09:51:48;20.60;99.90
57088;DHT22;42965;52.846;6.614;2023-07-16T09:54:15;20.60;99.90
57088;DHT22;42965;52.846;6.614;2023-07-16T09:56:45;20.60;99.90
57088;DHT22;42965;52.846;6.614;2023-07-16T09:59:15;21.40;99.90
57088;DHT22;42965;52.846;6.614;2023-07-16T10:01:42;22.30;99.90
57088;DHT22;42965;52.846;6.614;2023-07-16T10:04:19;22.30;99.90
57088;DHT22;42965;52.846;6.614;2023-07-16T10:07:03;22.20;99.90
57088;DHT22;42965;52.846;6.614;2023-07-16T10:09:39;21.70;99.90
57088;DHT22;42965;52.846;6.614;2023-07-16T10:12:17;21.60;99.90
57088;DHT22;42965;52.846;6.614;2023-07-16T10:14:46;21.80;99.90
57088;DHT22;42965;52.846;6.614;2023-07-16T10:17:23;21.70;99.90
57088;DHT22;42965;52.846;6.614;2023-07-16T10:22:43;21.50;99.90
57088;DHT22;42965;52.846;6.614;2023-07-16T10:27:49;21.60;99.90
57088;DHT22;42965;52.846;6.614;2023-07-16T10:30:16;21.20;99.90
57088;DHT22;42965;52.846;6.614;2023-07-16T10:32:43;21.00;99.90
57088;DHT22;42965;52.846;6.614;2023-07-16T10:35:09;20.80;99.90
57088;DHT22;42965;52.846;6.614;2023-07-16T10:37:37;20.40;99.90
57088;DHT22;42965;52.846;6.614;2023-07-16T10:40:05;20.30;99.90
57088;DHT22;42965;52.846;6.614;2023-07-16T10:42:32;20.20;99.90
57088;DHT22;42965;52.846;6.614;2023-07-16T10:45:00;20.20;99.90
57088;DHT22;42965;52.846;6.614;2023-07-16T10:47:31;20.60;99.90
57088;DHT22;42965;52.846;6.614;2023-07-16T10:49:58;21.10;99.90
57088;DHT22;42965;52.846;6.614;2023-07-16T10:52:31;21.10;99.90
57088;DHT22;42965;52.846;6.614;2023-07-16T10:55:01;21.10;99.90
57088;DHT22;42965;52.846;6.614;2023-07-16T10:57:28;21.90;99.90
57088;DHT22;42965;52.846;6.614;2023-07-16T10:59:57;22.70;99.90
57088;DHT22;42965;52.846;6.614;2023-07-16T11:02:24;23.00;99.90
57088;DHT22;42965;52.846;6.614;2023-07-16T11:04:51;23.70;99.90
57088;DHT22;42965;52.846;6.614;2023-07-16T11:07:20;23.50;99.90
57088;DHT22;42965;52.846;6.614;2023-07-16T11:09:49;23.00;99.90
57088;DHT22;42965;52.846;6.614;2023-07-16T11:12:18;23.00;99.90
57088;DHT22;42965;52.846;6.614;2023-07-16T11:14:47;23.00;99.90
57088;DHT22;42965;52.846;6.614;2023-07-16T11:17:14;23.10;99.90
57088;DHT22;42965;52.846;6.614;2023-07-16T11:19:44;22.90;99.90
57088;DHT22;42965;52.846;6.614;2023-07-16T11:22:10;23.00;99.90
57088;DHT22;42965;52.846;6.614;2023-07-16T11:24:44;22.70;99.90
57088;DHT22;42965;52.846;6.614;2023-07-16T11:29:54;22.50;99.90
57088;DHT22;42965;52.846;6.614;2023-07-16T11:34:57;22.10;99.90
57088;DHT22;42965;52.846;6.614;2023-07-16T11:37:25;21.90;99.90
57088;DHT22;42965;52.846;6.614;2023-07-16T11:40:01;21.70;99.90
57088;DHT22;42965;52.846;6.614;2023-07-16T11:42:33;21.60;99.90
57088;DHT22;42965;52.846;6.614;2023-07-16T11:45:00;21.40;99.90
57088;DHT22;42965;52.846;6.614;2023-07-16T11:47:27;21.20;99.90
57088;DHT22;42965;52.846;6.614;2023-07-16T11:49:54;21.10;99.90
57088;DHT22;42965;52.846;6.614;2023-07-16T11:52:26;21.10;99.90
57088;DHT22;42965;52.846;6.614;2023-07-16T11:54:53;20.90;99.90
57088;DHT22;42965;52.846;6.614;2023-07-16T11:57:20;20.80;99.90
57088;DHT22;42965;52.846;6.614;2023-07-16T11:59:46;20.80;99.90
57088;DHT22;42965;52.846;6.614;2023-07-16T12:02:13;21.10;99.90
57088;DHT22;42965;52.846;6.614;2023-07-16T12:04:39;22.00;99.90
57088;DHT22;42965;52.846;6.614;2023-07-16T12:07:06;23.00;99.90
57088;DHT22;42965;52.846;6.614;2023-07-16T12:09:32;23.50;99.90
57088;DHT22;42965;52.846;6.614;2023-07-16T12:12:02;23.40;99.90
57088;DHT22;42965;52.846;6.614;2023-07-16T12:14:28;23.30;99.90
57088;DHT22;42965;52.846;6.614;2023-07-16T12:16:58;23.10;99.90
57088;DHT22;42965;52.846;6.614;2023-07-16T12:19:24;23.00;99.90
57088;DHT22;42965;52.846;6.614;2023-07-16T12:21:51;22.90;99.90
57088;DHT22;42965;52.846;6.614;2023-07-16T12:24:17;23.00;99.90
57088;DHT22;42965;52.846;6.614;2023-07-16T12:26:44;22.50;99.90
57088;DHT22;42965;52.846;6.614;2023-07-16T12:29:10;22.10;99.90
57088;DHT22;42965;52.846;6.614;2023-07-16T12:31:36;21.90;99.90
57088;DHT22;42965;52.846;6.614;2023-07-16T12:34:02;21.60;99.90
57088;DHT22;42965;52.846;6.614;2023-07-16T12:36:31;21.30;99.90
57088;DHT22;42965;52.846;6.614;2023-07-16T12:38:57;21.10;99.90
57088;DHT22;42965;52.846;6.614;2023-07-16T12:41:23;21.20;99.90
57088;DHT22;42965;52.846;6.614;2023-07-16T12:43:51;21.60;99.90
57088;DHT22;42965;52.846;6.614;2023-07-16T12:46:20;21.90;99.90
57088;DHT22;42965;52.846;6.614;2023-07-16T12:48:46;22.00;99.90
57088;DHT22;42965;52.846;6.614;2023-07-16T12:51:13;22.20;99.90
57088;DHT22;42965;52.846;6.614;2023-07-16T12:53:40;22.20;99.90
57088;DHT22;42965;52.846;6.614;2023-07-16T12:56:07;22.00;99.90
57088;DHT22;42965;52.846;6.614;2023-07-16T12:58:33;22.10;99.90
57088;DHT22;42965;52.846;6.614;2023-07-16T13:01:03;22.10;99.90
57088;DHT22;42965;52.846;6.614;2023-07-16T13:03:29;22.20;99.90
57088;DHT22;42965;52.846;6.614;2023-07-16T13:05:55;22.40;99.90
57088;DHT22;42965;52.846;6.614;2023-07-16T13:08:22;22.40;99.90
57088;DHT22;42965;52.846;6.614;2023-07-16T13:10:48;22.20;99.90
57088;DHT22;42965;52.846;6.614;2023-07-16T13:13:14;22.10;99.90
57088;DHT22;42965;52.846;6.614;2023-07-16T13:15:41;21.70;99.90
57088;DHT22;42965;52.846;6.614;2023-07-16T13:18:09;21.60;99.90
57088;DHT22;42965;52.846;6.614;2023-07-16T13:20:36;21.70;99.90
57088;DHT22;42965;52.846;6.614;2023-07-16T13:23:03;21.80;99.90
57088;DHT22;42965;52.846;6.614;2023-07-16T13:25:30;22.10;99.90
57088;DHT22;42965;52.846;6.614;2023-07-16T13:27:57;22.20;99.90
57088;DHT22;42965;52.846;6.614;2023-07-16T13:30:23;22.30;99.90
57088;DHT22;42965;52.846;6.614;2023-07-16T13:32:50;22.40;99.90
57088;DHT22;42965;52.846;6.614;2023-07-16T13:35:19;23.10;99.90
57088;DHT22;42965;52.846;6.614;2023-07-16T13:37:45;23.50;99.90
57088;DHT22;42965;52.846;6.614;2023-07-16T13:40:12;23.20;99.90
57088;DHT22;42965;52.846;6.614;2023-07-16T13:42:38;23.60;99.90
57088;DHT22;42965;52.846;6.614;2023-07-16T13:45:06;23.80;99.90
57088;DHT22;42965;52.846;6.614;2023-07-16T13:47:32;23.20;99.90
57088;DHT22;42965;52.846;6.614;2023-07-16T13:49:59;22.90;99.90
57088;DHT22;42965;52.846;6.614;2023-07-16T13:52:25;22.60;99.90
57088;DHT22;42965;52.846;6.614;2023-07-16T13:54:53;22.50;99.90
57088;DHT22;42965;52.846;6.614;2023-07-16T13:57:20;22.40;99.90
57088;DHT22;42965;52.846;6.614;2023-07-16T13:59:47;22.70;99.90
57088;DHT22;42965;52.846;6.614;2023-07-16T14:02:13;22.80;99.90
57088;DHT22;42965;52.846;6.614;2023-07-16T14:04:39;22.70;99.90
57088;DHT22;42965;52.846;6.614;2023-07-16T14:07:05;22.50;99.90
57088;DHT22;42965;52.846;6.614;2023-07-16T14:09:32;22.30;99.90
57088;DHT22;42965;52.846;6.614;2023-07-16T14:11:58;22.20;99.90
57088;DHT22;42965;52.846;6.614;2023-07-16T14:14:24;22.20;99.90
57088;DHT22;42965;52.846;6.614;2023-07-16T14:16:50;21.90;99.90
57088;DHT22;42965;52.846;6.614;2023-07-16T14:19:17;21.90;99.90
57088;DHT22;42965;52.846;6.614;2023-07-16T14:21:43;21.90;99.90
57088;DHT22;42965;52.846;6.614;2023-07-16T14:24:09;21.90;99.90
57088;DHT22;42965;52.846;6.614;2023-07-16T14:26:36;21.90;99.90
57088;DHT22;42965;52.846;6.614;2023-07-16T14:29:02;22.10;99.90
57088;DHT22;42965;52.846;6.614;2023-07-16T14:31:29;22.50;99.90
57088;DHT22;42965;52.846;6.614;2023-07-16T14:33:55;23.70;99.90
57088;DHT22;42965;52.846;6.614;2023-07-16T14:36:22;24.80;98.50
57088;DHT22;42965;52.846;6.614;2023-07-16T14:38:48;25.60;96.20
57088;DHT22;42965;52.846;6.614;2023-07-16T14:41:15;25.80;93.60
57088;DHT22;42965;52.846;6.614;2023-07-16T14:43:41;26.10;90.90
57088;DHT22;42965;52.846;6.614;2023-07-16T14:46:08;25.90;89.20
57088;DHT22;42965;52.846;6.614;2023-07-16T14:48:44;25.10;87.90
57088;DHT22;42965;52.846;6.614;2023-07-16T14:51:11;24.50;89.80
57088;DHT22;42965;52.846;6.614;2023-07-16T14:53:38;23.70;91.00
57088;DHT22;42965;52.846;6.614;2023-07-16T14:56:05;23.10;92.80
57088;DHT22;42965;52.846;6.614;2023-07-16T14:58:33;22.80;94.50
57088;DHT22;42965;52.846;6.614;2023-07-16T15:01:01;22.70;95.50
57088;DHT22;42965;52.846;6.614;2023-07-16T15:03:34;22.60;96.50
57088;DHT22;42965;52.846;6.614;2023-07-16T15:06:06;22.70;96.50
57088;DHT22;42965;52.846;6.614;2023-07-16T15:08:32;22.60;96.80
57088;DHT22;42965;52.846;6.614;2023-07-16T15:11:05;23.10;97.10
57088;DHT22;42965;52.846;6.614;2023-07-16T15:13:31;23.50;97.20
57088;DHT22;42965;52.846;6.614;2023-07-16T15:15:58;23.80;97.20
57088;DHT22;42965;52.846;6.614;2023-07-16T15:18:27;23.60;96.90
57088;DHT22;42965;52.846;6.614;2023-07-16T15:21:00;23.60;97.00
57088;DHT22;42965;52.846;6.614;2023-07-16T15:23:27;23.10;96.10
57088;DHT22;42965;52.846;6.614;2023-07-16T15:25:55;22.80;96.60
57088;DHT22;42965;52.846;6.614;2023-07-16T15:28:21;22.40;97.50
57088;DHT22;42965;52.846;6.614;2023-07-16T15:30:48;22.20;98.20
57088;DHT22;42965;52.846;6.614;2023-07-16T15:33:15;21.90;99.50
57088;DHT22;42965;52.846;6.614;2023-07-16T15:35:42;21.80;99.90
57088;DHT22;42965;52.846;6.614;2023-07-16T15:38:08;21.80;99.90
57088;DHT22;42965;52.846;6.614;2023-07-16T15:40:35;21.90;99.90
57088;DHT22;42965;52.846;6.614;2023-07-16T15:43:01;21.90;99.90
57088;DHT22;42965;52.846;6.614;2023-07-16T15:45:28;22.00;99.90
57088;DHT22;42965;52.846;6.614;2023-07-16T15:47:54;21.80;99.90